createdAt,value
2019-04-25T00:00:42.213Z,61.11
2019-04-25T00:01:42.228Z,61.44
2019-04-25T00:02:42.306Z,61.75
2019-04-25T00:03:42.210Z,61.75
2019-04-25T00:04:42.603Z,61.65
2019-04-25T00:05:42.170Z,61.85
2019-04-25T00:06:41.123Z,62.16
2019-04-25T00:07:42.498Z,61.95
2019-04-25T00:08:41.297Z,61.85
2019-04-25T00:09:42.725Z,61.95
2019-04-25T00:10:42.678Z,61.95
2019-04-25T00:11:43.668Z,62.05
2019-04-25T00:12:43.188Z,61.75
2019-04-25T00:13:41.934Z,61.47
2019-04-25T00:14:41.669Z,61.88
2019-04-25T00:15:41.944Z,61.88
2019-04-25T00:16:41.381Z,61.88
2019-04-25T00:17:41.958Z,62.08
2019-04-25T00:18:41.924Z,62.08
2019-04-25T00:19:42.185Z,62.18
2019-04-25T00:20:42.636Z,62.08
2019-04-25T00:21:42.157Z,62.08
2019-04-25T00:22:42.474Z,62.29
2019-04-25T00:23:42.579Z,62.08
2019-04-25T00:24:42.584Z,62.08
2019-04-25T00:25:45.129Z,61.88
2019-04-25T00:26:43.231Z,61.98
2019-04-25T00:27:43.264Z,61.78
2019-04-25T00:28:43.511Z,61.78
2019-04-25T00:29:41.831Z,61.98
2019-04-25T00:30:40.906Z,61.88
2019-04-25T00:31:43.265Z,61.78
2019-04-25T00:32:42.172Z,61.98
2019-04-25T00:33:41.974Z,62.32
2019-04-25T00:34:43.196Z,62.62
2019-04-25T00:35:43.230Z,62.82
2019-04-25T00:36:43.458Z,62.72
2019-04-25T00:37:40.243Z,62.62
2019-04-25T00:38:42.703Z,63.16
2019-04-25T00:39:43.519Z,63.57
2019-04-25T00:40:41.884Z,63.80
2019-04-25T00:41:41.725Z,63.90
2019-04-25T00:42:42.778Z,63.90
2019-04-25T00:43:42.194Z,63.90
2019-04-25T00:44:42.511Z,63.90
2019-04-25T00:45:42.384Z,63.80
2019-04-25T00:46:40.178Z,63.83
2019-04-25T00:47:41.538Z,63.59
2019-04-25T00:48:41.513Z,63.42
2019-04-25T00:49:43.043Z,63.32
2019-04-25T00:50:41.569Z,63.42
2019-04-25T00:51:41.748Z,63.42
2019-04-25T00:52:42.417Z,63.42
2019-04-25T00:53:41.801Z,63.12
2019-04-25T00:54:41.394Z,62.81
2019-04-25T00:55:42.217Z,62.61
2019-04-25T00:56:40.084Z,62.61
2019-04-25T00:57:40.039Z,62.40
2019-04-25T00:58:40.024Z,62.40
2019-04-25T00:59:41.735Z,62.61
2019-04-25T01:00:41.477Z,62.51
2019-04-25T01:01:41.362Z,62.20
2019-04-25T01:02:40.082Z,61.99
2019-04-25T01:03:39.968Z,62.20
2019-04-25T01:04:41.975Z,62.20
2019-04-25T01:05:39.961Z,62.20
2019-04-25T01:06:41.575Z,62.10
2019-04-25T01:07:39.928Z,61.66
2019-04-25T01:08:41.413Z,61.49
2019-04-25T01:09:42.198Z,61.38
2019-04-25T01:10:41.545Z,61.38
2019-04-25T01:11:39.915Z,61.38
2019-04-25T01:12:41.605Z,61.38
2019-04-25T01:13:39.856Z,61.59
2019-04-25T01:14:41.870Z,61.72
2019-04-25T01:15:39.843Z,61.82
2019-04-25T01:16:39.885Z,61.82
2019-04-25T01:17:41.227Z,62.02
2019-04-25T01:18:39.823Z,61.93
2019-04-25T01:19:39.812Z,62.05
2019-04-25T01:20:39.792Z,62.16
2019-04-25T01:21:39.802Z,62.26
2019-04-25T01:22:39.813Z,62.26
2019-04-25T01:23:39.794Z,62.05
2019-04-25T01:24:40.310Z,62.16
2019-04-25T01:25:42.562Z,62.18
2019-04-25T01:26:39.728Z,62.08
2019-04-25T01:27:39.740Z,61.98
2019-04-25T01:28:39.700Z,61.98
2019-04-25T01:29:39.757Z,61.88
2019-04-25T01:30:39.678Z,61.57
2019-04-25T01:31:39.668Z,61.68
2019-04-25T01:32:39.696Z,61.78
2019-04-25T01:33:39.666Z,61.88
2019-04-25T01:34:39.644Z,61.68
2019-04-25T01:35:39.626Z,61.57
2019-04-25T01:36:39.622Z,61.37
2019-04-25T01:37:39.647Z,61.07
2019-04-25T01:38:39.613Z,61.07
2019-04-25T01:39:39.591Z,60.96
2019-04-25T01:40:39.573Z,60.93
2019-04-25T01:41:39.601Z,60.93
2019-04-25T01:42:39.662Z,61.04
2019-04-25T01:43:39.581Z,61.04
2019-04-25T01:44:39.531Z,61.24
2019-04-25T01:45:40.351Z,61.47
2019-04-25T01:46:39.509Z,61.71
2019-04-25T01:47:39.529Z,62.01
2019-04-25T01:48:39.491Z,62.21
2019-04-25T01:49:39.489Z,62.11
2019-04-25T01:50:39.476Z,62.18
2019-04-25T01:51:39.465Z,62.08
2019-04-25T01:52:39.477Z,62.08
2019-04-25T01:53:39.436Z,61.98
2019-04-25T01:54:39.425Z,61.88
2019-04-25T01:55:50.912Z,61.88
2019-04-25T01:56:40.404Z,61.78
2019-04-25T01:57:39.436Z,61.68
2019-04-25T01:58:39.382Z,61.57
2019-04-25T01:59:39.365Z,61.37
2019-04-25T02:00:39.904Z,61.37
2019-04-25T02:01:39.379Z,61.27
2019-04-25T02:02:39.844Z,61.68
2019-04-25T02:03:39.361Z,61.98
2019-04-25T02:04:39.339Z,62.21
2019-04-25T02:05:39.322Z,62.32
2019-04-25T02:06:39.311Z,62.52
2019-04-25T02:07:39.288Z,62.73
2019-04-25T02:08:39.343Z,63.26
2019-04-25T02:09:39.268Z,63.16
2019-04-25T02:10:39.248Z,62.85
2019-04-25T02:11:39.248Z,62.55
2019-04-25T02:12:39.237Z,62.52
2019-04-25T02:13:39.266Z,62.42
2019-04-25T02:14:39.965Z,62.55
2019-04-25T02:15:39.221Z,63.06
2019-04-25T02:16:39.965Z,62.85
2019-04-25T02:17:39.189Z,62.85
2019-04-25T02:18:39.211Z,62.52
2019-04-25T02:19:39.163Z,62.55
2019-04-25T02:20:39.163Z,62.96
2019-04-25T02:21:39.143Z,62.76
2019-04-25T02:22:39.963Z,62.45
2019-04-25T02:23:39.149Z,62.76
2019-04-25T02:24:39.112Z,62.96
2019-04-25T02:25:39.097Z,63.06
2019-04-25T02:26:39.090Z,63.29
2019-04-25T02:27:39.105Z,63.29
2019-04-25T02:28:39.089Z,63.06
2019-04-25T02:29:39.058Z,63.09
2019-04-25T02:30:39.048Z,63.49
2019-04-25T02:31:39.079Z,63.49
2019-04-25T02:32:39.029Z,63.49
2019-04-25T02:33:39.040Z,63.19
2019-04-25T02:34:39.018Z,63.40
2019-04-25T02:35:42.891Z,63.29
2019-04-25T02:36:39.995Z,63.49
2019-04-25T02:37:38.976Z,63.63
2019-04-25T02:38:39.008Z,63.83
2019-04-25T02:39:39.506Z,63.93
2019-04-25T02:40:39.507Z,63.93
2019-04-25T02:41:38.942Z,63.93
2019-04-25T02:42:38.922Z,64.14
2019-04-25T02:43:39.039Z,64.04
2019-04-25T02:44:38.924Z,64.14
2019-04-25T02:45:38.899Z,64.14
2019-04-25T02:46:38.906Z,64.14
2019-04-25T02:47:38.893Z,64.27
2019-04-25T02:48:38.861Z,64.37
2019-04-25T02:49:39.818Z,64.04
2019-04-25T02:50:38.851Z,64.04
2019-04-25T02:51:38.826Z,63.96
2019-04-25T02:52:38.832Z,64.17
2019-04-25T02:53:38.915Z,64.27
2019-04-25T02:54:38.827Z,64.48
2019-04-25T02:55:38.816Z,64.48
2019-04-25T02:56:39.219Z,64.68
2019-04-25T02:57:38.775Z,64.58
2019-04-25T02:58:38.762Z,64.37
2019-04-25T02:59:38.773Z,64.37
2019-04-25T03:00:51.647Z,64.37
2019-04-25T03:01:39.726Z,64.48
2019-04-25T03:02:38.730Z,64.27
2019-04-25T03:03:38.749Z,64.37
2019-04-25T03:04:38.729Z,64.51
2019-04-25T03:05:38.693Z,64.71
2019-04-25T03:06:38.682Z,64.92
2019-04-25T03:07:38.673Z,65.12
2019-04-25T03:08:38.681Z,65.02
2019-04-25T03:09:38.670Z,65.02
2019-04-25T03:10:38.629Z,65.12
2019-04-25T03:11:38.618Z,65.02
2019-04-25T03:12:38.613Z,65.22
2019-04-25T03:13:38.600Z,65.63
2019-04-25T03:14:38.640Z,65.97
2019-04-25T03:15:38.580Z,65.97
2019-04-25T03:16:38.556Z,66.38
2019-04-25T03:17:38.556Z,66.28
2019-04-25T03:18:38.556Z,66.89
2019-04-25T03:19:38.602Z,66.89
2019-04-25T03:20:38.524Z,66.99
2019-04-25T03:21:38.514Z,67.30
2019-04-25T03:22:38.503Z,66.89
2019-04-25T03:23:42.073Z,67.23
2019-04-25T03:24:38.561Z,67.84
2019-04-25T03:25:38.477Z,67.87
2019-04-25T03:26:40.631Z,68.38
2019-04-25T03:27:38.461Z,68.59
2019-04-25T03:28:38.479Z,69.03
2019-04-25T03:29:38.462Z,69.13
2019-04-25T03:30:38.420Z,69.34
2019-04-25T03:31:39.021Z,69.44
2019-04-25T03:32:38.396Z,69.34
2019-04-25T03:33:38.801Z,69.10
2019-04-25T03:34:39.768Z,69.00
2019-04-25T03:35:38.364Z,68.90
2019-04-25T03:36:38.426Z,68.69
2019-04-25T03:37:39.152Z,69.00
2019-04-25T03:38:38.377Z,68.69
2019-04-25T03:39:38.345Z,68.69
2019-04-25T03:40:38.322Z,68.49
2019-04-25T03:41:40.514Z,68.08
2019-04-25T03:42:38.329Z,67.94
2019-04-25T03:43:39.233Z,67.94
2019-04-25T03:44:38.291Z,68.49
2019-04-25T03:45:38.263Z,68.28
2019-04-25T03:46:38.241Z,68.69
2019-04-25T03:47:38.241Z,68.79
2019-04-25T03:48:38.240Z,68.59
2019-04-25T03:49:38.239Z,68.90
2019-04-25T03:50:38.199Z,68.90
2019-04-25T03:51:38.187Z,68.90
2019-04-25T03:52:38.186Z,68.55
2019-04-25T03:53:38.177Z,68.76
2019-04-25T03:54:38.187Z,68.90
2019-04-25T03:55:38.154Z,68.76
2019-04-25T03:56:49.656Z,68.46
2019-04-25T03:57:39.126Z,68.46
2019-04-25T03:58:38.155Z,68.46
2019-04-25T03:59:38.185Z,68.55
2019-04-25T04:00:38.118Z,68.55
2019-04-25T04:01:38.085Z,68.46
2019-04-25T04:02:38.079Z,68.25
2019-04-25T04:03:38.072Z,68.55
2019-04-25T04:04:38.690Z,68.55
2019-04-25T04:05:38.074Z,68.59
2019-04-25T04:06:38.046Z,69.10
2019-04-25T04:07:38.037Z,69.41
2019-04-25T04:08:38.013Z,69.41
2019-04-25T04:09:38.048Z,69.71
2019-04-25T04:10:38.679Z,69.85
2019-04-25T04:11:37.988Z,69.75
2019-04-25T04:12:37.998Z,69.41
2019-04-25T04:13:37.976Z,69.54
2019-04-25T04:14:38.577Z,69.65
2019-04-25T04:15:38.016Z,69.75
2019-04-25T04:16:37.954Z,69.34
2019-04-25T04:17:37.941Z,69.13
2019-04-25T04:18:38.675Z,69.03
2019-04-25T04:19:37.983Z,69.78
2019-04-25T04:20:38.042Z,69.89
2019-04-25T04:21:37.973Z,69.98
2019-04-25T04:22:37.871Z,69.89
2019-04-25T04:23:37.895Z,69.89
2019-04-25T04:24:37.898Z,69.98
2019-04-25T04:25:38.582Z,69.98
2019-04-25T04:26:37.911Z,70.40
2019-04-25T04:27:38.680Z,70.19
2019-04-25T04:28:37.950Z,70.40
2019-04-25T04:29:37.800Z,70.19
2019-04-25T04:30:37.827Z,69.98
2019-04-25T04:31:37.787Z,70.40
2019-04-25T04:32:37.778Z,70.60
2019-04-25T04:33:37.764Z,70.50
2019-04-25T04:34:37.784Z,70.40
2019-04-25T04:35:37.865Z,70.40
2019-04-25T04:36:37.725Z,70.16
2019-04-25T04:37:37.732Z,70.06
2019-04-25T04:38:38.664Z,70.36
2019-04-25T04:39:37.755Z,70.36
2019-04-25T04:40:37.712Z,70.36
2019-04-25T04:41:37.732Z,70.16
2019-04-25T04:42:37.706Z,70.06
2019-04-25T04:43:37.694Z,70.06
2019-04-25T04:44:44.640Z,69.85
2019-04-25T04:45:37.639Z,69.85
2019-04-25T04:46:37.598Z,69.71
2019-04-25T04:47:37.598Z,69.61
2019-04-25T04:48:37.586Z,69.61
2019-04-25T04:49:37.578Z,69.31
2019-04-25T04:50:37.630Z,68.97
2019-04-25T04:51:37.545Z,68.66
2019-04-25T04:52:38.384Z,68.76
2019-04-25T04:53:37.525Z,68.66
2019-04-25T04:54:38.375Z,68.87
2019-04-25T04:55:37.943Z,68.63
2019-04-25T04:56:37.495Z,68.70
2019-04-25T04:57:37.484Z,68.36
2019-04-25T04:58:37.495Z,67.65
2019-04-25T04:59:38.161Z,66.93
2019-04-25T05:00:38.372Z,66.93
2019-04-25T05:01:38.162Z,67.24
2019-04-25T05:02:37.442Z,66.93
2019-04-25T05:03:37.420Z,66.72
2019-04-25T05:04:37.409Z,66.62
2019-04-25T05:05:37.438Z,66.72
2019-04-25T05:06:37.397Z,66.83
2019-04-25T05:07:37.387Z,66.93
2019-04-25T05:08:37.367Z,67.10
2019-04-25T05:09:37.386Z,66.18
2019-04-25T05:10:37.375Z,65.95
2019-04-25T05:11:37.368Z,65.84
2019-04-25T05:12:37.343Z,65.64
2019-04-25T05:13:37.325Z,65.51
2019-04-25T05:14:37.314Z,65.51
2019-04-25T05:15:37.323Z,65.41
2019-04-25T05:16:37.291Z,65.51
2019-04-25T05:17:37.274Z,65.68
2019-04-25T05:18:39.874Z,64.66
2019-04-25T05:19:37.269Z,65.04
2019-04-25T05:20:37.273Z,64.02
2019-04-25T05:21:37.248Z,64.22
2019-04-25T05:22:37.263Z,64.50
2019-04-25T05:23:37.222Z,63.48
2019-04-25T05:24:37.209Z,63.48
2019-04-25T05:25:37.249Z,63.48
2019-04-25T05:26:37.187Z,63.45
2019-04-25T05:27:50.781Z,64.37
2019-04-25T05:28:39.377Z,63.24
2019-04-25T05:29:37.147Z,63.24
2019-04-25T05:30:37.136Z,63.24
2019-04-25T05:31:37.156Z,63.35
2019-04-25T05:32:37.186Z,63.56
2019-04-25T05:33:37.125Z,63.53
2019-04-25T05:34:37.171Z,62.61
2019-04-25T05:35:37.083Z,63.01
2019-04-25T05:36:37.136Z,62.98
2019-04-25T05:37:37.079Z,62.96
2019-04-25T05:38:37.062Z,61.51
2019-04-25T05:39:37.141Z,62.11
2019-04-25T05:40:37.028Z,61.60
2019-04-25T05:41:37.050Z,60.49
2019-04-25T05:42:37.809Z,60.38
2019-04-25T05:43:36.999Z,60.89
2019-04-25T05:44:36.988Z,60.69
2019-04-25T05:45:36.986Z,60.79
2019-04-25T05:46:36.996Z,60.59
2019-04-25T05:47:36.959Z,60.56
2019-04-25T05:48:36.948Z,60.18
2019-04-25T05:49:36.928Z,60.36
2019-04-25T05:50:36.924Z,60.02
2019-04-25T05:51:36.935Z,59.21
2019-04-25T05:52:37.506Z,59.41
2019-04-25T05:53:36.893Z,58.78
2019-04-25T05:54:36.874Z,58.60
2019-04-25T05:55:36.872Z,58.37
2019-04-25T05:56:36.885Z,58.54
2019-04-25T05:57:45.511Z,57.93
2019-04-25T05:58:38.392Z,57.84
2019-04-25T05:59:36.854Z,57.03
2019-04-25T06:00:36.811Z,56.92
2019-04-25T06:01:36.830Z,56.82
2019-04-25T06:02:36.792Z,56.90
2019-04-25T06:03:36.780Z,56.39
2019-04-25T06:04:36.770Z,56.97
2019-04-25T06:05:36.760Z,57.15
2019-04-25T06:06:36.985Z,56.84
2019-04-25T06:07:36.739Z,55.52
2019-04-25T06:08:36.729Z,55.10
2019-04-25T06:09:36.721Z,55.10
2019-04-25T06:10:36.708Z,54.89
2019-04-25T06:11:36.728Z,55.07
2019-04-25T06:12:36.791Z,53.85
2019-04-25T06:13:36.676Z,53.96
2019-04-25T06:14:36.666Z,53.83
2019-04-25T06:15:36.654Z,53.32
2019-04-25T06:16:38.325Z,53.42
2019-04-25T06:17:36.641Z,53.12
2019-04-25T06:18:36.623Z,52.11
2019-04-25T06:19:38.323Z,51.70
2019-04-25T06:20:36.602Z,50.82
2019-04-25T06:21:36.621Z,49.60
2019-04-25T06:22:36.581Z,50.38
2019-04-25T06:23:36.583Z,51.17
2019-04-25T06:24:36.560Z,49.45
2019-04-25T06:25:39.784Z,49.48
2019-04-25T06:26:39.774Z,50.09
2019-04-25T06:27:36.527Z,49.76
2019-04-25T06:28:48.991Z,50.37
2019-04-25T06:29:37.507Z,49.43
2019-04-25T06:30:36.500Z,49.43
2019-04-25T06:31:36.537Z,49.66
2019-04-25T06:32:36.478Z,50.24
2019-04-25T06:33:36.502Z,49.63
2019-04-25T06:34:36.563Z,49.22
2019-04-25T06:35:36.467Z,50.01
2019-04-25T06:36:36.439Z,48.42
2019-04-25T06:37:36.480Z,49.02
2019-04-25T06:38:36.964Z,49.25
2019-04-25T06:39:36.402Z,49.96
2019-04-25T06:40:36.391Z,49.45
2019-04-25T06:41:37.103Z,49.76
2019-04-25T06:42:36.393Z,49.43
2019-04-25T06:43:36.363Z,49.71
2019-04-25T06:44:36.372Z,49.21
2019-04-25T06:45:36.360Z,49.58
2019-04-25T06:46:36.478Z,48.88
2019-04-25T06:47:36.342Z,48.96
2019-04-25T06:48:36.303Z,47.85
2019-04-25T06:49:37.382Z,47.64
2019-04-25T06:50:36.279Z,47.85
2019-04-25T06:51:36.285Z,48.17
2019-04-25T06:52:36.306Z,48.19
2019-04-25T06:53:36.282Z,49.21
2019-04-25T06:54:36.243Z,49.05
2019-04-25T06:55:36.987Z,48.45
2019-04-25T06:56:36.986Z,48.35
2019-04-25T06:57:36.237Z,47.64
2019-04-25T06:58:36.196Z,47.62
2019-04-25T06:59:38.651Z,47.95
2019-04-25T07:00:41.269Z,48.53
2019-04-25T07:01:37.174Z,48.41
2019-04-25T07:02:36.225Z,48.18
2019-04-25T07:03:36.153Z,47.30
2019-04-25T07:04:36.140Z,47.78
2019-04-25T07:05:40.568Z,48.28
2019-04-25T07:06:36.121Z,46.87
2019-04-25T07:07:36.129Z,47.40
2019-04-25T07:08:36.090Z,47.60
2019-04-25T07:09:36.981Z,47.70
2019-04-25T07:10:36.077Z,48.08
2019-04-25T07:11:36.059Z,46.39
2019-04-25T07:12:36.880Z,46.79
2019-04-25T07:13:38.802Z,46.87
2019-04-25T07:14:36.929Z,46.89
2019-04-25T07:15:36.681Z,47.27
2019-04-25T07:16:36.032Z,47.05
2019-04-25T07:17:37.040Z,46.42
2019-04-25T07:18:37.334Z,46.53
2019-04-25T07:19:35.991Z,45.84
2019-04-25T07:20:35.966Z,45.54
2019-04-25T07:21:35.975Z,46.34
2019-04-25T07:22:36.247Z,47.23
2019-04-25T07:23:36.710Z,45.90
2019-04-25T07:24:35.924Z,45.00
2019-04-25T07:25:36.695Z,44.79
2019-04-25T07:26:39.520Z,45.09
2019-04-25T07:27:35.935Z,45.29
2019-04-25T07:28:36.925Z,45.57
2019-04-25T07:29:35.863Z,43.88
2019-04-25T07:30:48.665Z,44.31
2019-04-25T07:31:37.054Z,44.41
2019-04-25T07:32:36.855Z,44.21
2019-04-25T07:33:35.919Z,44.41
2019-04-25T07:34:36.706Z,44.47
2019-04-25T07:35:35.808Z,44.24
2019-04-25T07:36:36.231Z,43.46
2019-04-25T07:37:37.362Z,43.72
2019-04-25T07:38:36.496Z,42.92
2019-04-25T07:39:36.449Z,42.84
2019-04-25T07:40:36.066Z,43.72
2019-04-25T07:41:37.159Z,41.83
2019-04-25T07:42:36.322Z,42.05
2019-04-25T07:43:36.331Z,43.51
2019-04-25T07:44:49.413Z,44.01
2019-04-25T07:45:36.697Z,44.11
2019-04-25T07:46:38.585Z,43.99
2019-04-25T07:47:36.421Z,43.48
2019-04-25T07:48:37.163Z,42.86
2019-04-25T07:49:35.993Z,41.75
2019-04-25T07:50:36.638Z,42.86
2019-04-25T07:51:36.633Z,42.54
2019-04-25T07:52:35.798Z,41.21
2019-04-25T07:53:36.102Z,40.81
2019-04-25T07:54:36.537Z,40.81
2019-04-25T07:55:36.333Z,41.49
2019-04-25T07:56:36.525Z,41.09
2019-04-25T07:57:35.915Z,40.67
2019-04-25T07:58:48.090Z,40.45
2019-04-25T07:59:36.563Z,40.17
2019-04-25T08:00:36.388Z,39.36
2019-04-25T08:01:37.473Z,39.66
2019-04-25T08:02:35.518Z,40.67
2019-04-25T08:03:36.514Z,40.05
2019-04-25T08:04:36.969Z,38.64
2019-04-25T08:05:36.642Z,39.03
2019-04-25T08:06:35.764Z,38.62
2019-04-25T08:07:36.306Z,37.42
2019-04-25T08:08:36.082Z,38.22
2019-04-25T08:09:36.789Z,37.50
2019-04-25T08:10:35.981Z,37.90
2019-04-25T08:11:36.230Z,37.88
2019-04-25T08:12:35.753Z,37.10
2019-04-25T08:13:36.301Z,37.60
2019-04-25T08:14:35.393Z,37.92
2019-04-25T08:15:36.255Z,38.12
2019-04-25T08:16:35.707Z,36.30
2019-04-25T08:17:37.236Z,35.80
2019-04-25T08:18:36.057Z,35.08
2019-04-25T08:19:35.603Z,35.08
2019-04-25T08:20:35.863Z,34.69
2019-04-25T08:21:35.696Z,35.39
2019-04-25T08:22:50.147Z,34.49
2019-04-25T08:23:37.922Z,34.19
2019-04-25T08:24:35.862Z,33.67
2019-04-25T08:25:38.864Z,34.56
2019-04-25T08:26:36.398Z,33.86
2019-04-25T08:27:35.568Z,33.44
2019-04-25T08:28:48.833Z,32.46
2019-04-25T08:29:39.104Z,33.16
2019-04-25T08:30:36.564Z,32.96
2019-04-25T08:31:36.302Z,33.06
2019-04-25T08:32:36.418Z,33.47
2019-04-25T08:33:35.538Z,33.17
2019-04-25T08:34:36.324Z,33.58
2019-04-25T08:35:36.213Z,34.46
2019-04-25T08:36:37.038Z,34.73
2019-04-25T08:37:36.606Z,34.61
2019-04-25T08:38:36.078Z,34.31
2019-04-25T08:39:38.078Z,34.51
2019-04-25T08:40:37.325Z,32.50
2019-04-25T08:41:36.047Z,32.01
2019-04-25T08:42:36.485Z,32.31
2019-04-25T08:43:37.789Z,33.29
2019-04-25T08:44:35.959Z,32.09
2019-04-25T08:45:35.800Z,32.09
2019-04-25T08:46:36.795Z,33.28
2019-04-25T08:47:36.093Z,31.96
2019-04-25T08:48:35.818Z,32.35
2019-04-25T08:49:36.199Z,30.16
2019-04-25T08:50:39.504Z,31.08
2019-04-25T08:51:36.145Z,30.99
2019-04-25T08:52:35.525Z,30.98
2019-04-25T08:53:36.609Z,31.76
2019-04-25T08:54:39.515Z,31.46
2019-04-25T08:55:37.017Z,31.85
2019-04-25T08:56:37.596Z,30.74
2019-04-25T08:57:35.222Z,30.92
2019-04-25T08:58:36.552Z,29.52
2019-04-25T08:59:40.664Z,30.44
2019-04-25T09:00:36.956Z,31.42
2019-04-25T09:01:37.928Z,32.62
2019-04-25T09:02:36.433Z,31.34
2019-04-25T09:03:35.795Z,31.04
2019-04-25T09:04:35.995Z,31.72
2019-04-25T09:05:37.383Z,30.14
2019-04-25T09:06:36.449Z,31.54
2019-04-25T09:07:35.503Z,30.44
2019-04-25T09:08:35.986Z,28.64
2019-04-25T09:09:36.421Z,29.04
2019-04-25T09:10:35.776Z,29.44
2019-04-25T09:11:36.631Z,30.12
2019-04-25T09:12:35.515Z,30.22
2019-04-25T09:13:37.387Z,29.82
2019-04-25T09:14:36.306Z,28.83
2019-04-25T09:15:36.654Z,31.30
2019-04-25T09:16:36.636Z,29.91
2019-04-25T09:17:35.824Z,29.91
2019-04-25T09:18:36.065Z,26.90
2019-04-25T09:19:36.221Z,29.48
2019-04-25T09:20:38.953Z,27.49
2019-04-25T09:21:36.586Z,27.97
2019-04-25T09:22:36.500Z,26.50
2019-04-25T09:23:36.411Z,27.08
2019-04-25T09:24:36.656Z,28.47
2019-04-25T09:25:35.863Z,27.87
2019-04-25T09:26:36.083Z,28.38
2019-04-25T09:27:35.793Z,27.29
2019-04-25T09:28:37.597Z,27.17
2019-04-25T09:29:35.467Z,26.07
2019-04-25T09:30:36.983Z,27.17
2019-04-25T09:31:37.144Z,27.18
2019-04-25T09:32:35.637Z,26.28
2019-04-25T09:33:36.010Z,25.59
2019-04-25T09:34:35.522Z,26.47
2019-04-25T09:35:36.033Z,25.77
2019-04-25T09:36:35.928Z,25.36
2019-04-25T09:37:35.386Z,26.35
2019-04-25T09:38:36.082Z,26.35
2019-04-25T09:39:35.581Z,26.65
2019-04-25T09:40:35.991Z,26.56
2019-04-25T09:41:35.950Z,26.06
2019-04-25T09:42:35.643Z,26.27
2019-04-25T09:43:35.722Z,26.47
2019-04-25T09:44:37.083Z,27.55
2019-04-25T09:45:35.969Z,26.26
2019-04-25T09:46:35.929Z,26.26
2019-04-25T09:47:35.624Z,25.74
2019-04-25T09:48:36.251Z,24.17
2019-04-25T09:49:35.231Z,24.57
2019-04-25T09:50:34.431Z,25.36
2019-04-25T09:51:35.889Z,25.86
2019-04-25T09:52:35.990Z,26.04
2019-04-25T09:53:38.833Z,25.43
2019-04-25T09:54:36.268Z,24.63
2019-04-25T09:55:35.990Z,22.75
2019-04-25T09:56:34.439Z,23.55
2019-04-25T09:57:34.403Z,23.55
2019-04-25T09:58:34.402Z,22.95
2019-04-25T09:59:35.271Z,22.06
2019-04-25T10:00:34.500Z,23.34
2019-04-25T10:01:34.392Z,22.53
2019-04-25T10:02:34.363Z,23.44
2019-04-25T10:03:34.351Z,23.47
2019-04-25T10:04:35.022Z,23.66
2019-04-25T10:05:34.282Z,23.35
2019-04-25T10:06:34.223Z,23.45
2019-04-25T10:07:34.241Z,23.85
2019-04-25T10:08:34.388Z,22.24
2019-04-25T10:09:34.210Z,22.33
2019-04-25T10:10:34.348Z,24.01
2019-04-25T10:11:34.208Z,22.83
2019-04-25T10:12:34.275Z,23.91
2019-04-25T10:13:35.039Z,23.14
2019-04-25T10:14:35.110Z,23.61
2019-04-25T10:15:34.178Z,21.44
2019-04-25T10:16:35.129Z,21.94
2019-04-25T10:17:34.108Z,21.73
2019-04-25T10:18:34.116Z,21.94
2019-04-25T10:19:34.524Z,21.73
2019-04-25T10:20:34.056Z,20.63
2019-04-25T10:21:34.419Z,20.52
2019-04-25T10:22:34.031Z,22.09
2019-04-25T10:23:34.283Z,22.20
2019-04-25T10:24:34.024Z,21.01
2019-04-25T10:25:34.168Z,22.40
2019-04-25T10:26:34.947Z,21.81
2019-04-25T10:27:34.020Z,21.70
2019-04-25T10:28:33.972Z,20.11
2019-04-25T10:29:41.308Z,20.01
2019-04-25T10:30:34.949Z,21.60
2019-04-25T10:31:33.983Z,24.07
2019-04-25T10:32:33.923Z,20.49
2019-04-25T10:33:33.914Z,20.39
2019-04-25T10:34:33.914Z,21.59
2019-04-25T10:35:46.461Z,21.59
2019-04-25T10:36:35.048Z,21.22
2019-04-25T10:37:35.251Z,22.31
2019-04-25T10:38:35.149Z,21.91
2019-04-25T10:39:34.107Z,23.58
2019-04-25T10:40:33.943Z,22.49
2019-04-25T10:41:35.871Z,22.97
2019-04-25T10:42:34.308Z,22.07
2019-04-25T10:43:34.283Z,21.78
2019-04-25T10:44:33.980Z,21.39
2019-04-25T10:45:34.126Z,21.78
2019-04-25T10:46:34.040Z,20.00
2019-04-25T10:47:35.189Z,21.00
2019-04-25T10:48:34.375Z,21.21
2019-04-25T10:49:34.499Z,22.51
2019-04-25T10:50:34.156Z,23.11
2019-04-25T10:51:34.257Z,23.59
2019-04-25T10:52:41.579Z,24.07
2019-04-25T10:53:36.444Z,22.48
2019-04-25T10:54:35.210Z,23.26
2019-04-25T10:55:33.693Z,23.36
2019-04-25T10:56:33.709Z,22.67
2019-04-25T10:57:34.065Z,23.36
2019-04-25T10:58:35.266Z,22.28
2019-04-25T10:59:33.649Z,23.28
2019-04-25T11:00:34.230Z,23.58
2019-04-25T11:01:33.933Z,23.68
2019-04-25T11:02:34.028Z,22.39
2019-04-25T11:03:33.858Z,22.48
2019-04-25T11:04:34.491Z,21.71
2019-04-25T11:05:34.276Z,22.19
2019-04-25T11:06:33.765Z,22.67
2019-04-25T11:07:33.990Z,21.48
2019-04-25T11:08:34.174Z,22.07
2019-04-25T11:09:34.292Z,21.58
2019-04-25T11:10:34.356Z,22.96
2019-04-25T11:11:34.199Z,21.77
2019-04-25T11:12:33.902Z,21.07
2019-04-25T11:13:35.274Z,20.87
2019-04-25T11:14:34.243Z,21.56
2019-04-25T11:15:33.995Z,21.94
2019-04-25T11:16:33.596Z,21.64
2019-04-25T11:17:33.829Z,21.05
2019-04-25T11:18:34.036Z,20.65
2019-04-25T11:19:34.319Z,21.45
2019-04-25T11:20:33.896Z,21.24
2019-04-25T11:21:33.489Z,20.76
2019-04-25T11:22:34.222Z,20.57
2019-04-25T11:23:33.465Z,21.66
2019-04-25T11:24:34.287Z,22.34
2019-04-25T11:25:34.174Z,21.06
2019-04-25T11:26:34.600Z,20.87
2019-04-25T11:27:34.030Z,21.45
2019-04-25T11:28:33.802Z,21.53
2019-04-25T11:29:34.146Z,19.85
2019-04-25T11:30:33.333Z,20.94
2019-04-25T11:31:34.262Z,20.94
2019-04-25T11:32:33.903Z,20.84
2019-04-25T11:33:33.511Z,20.04
2019-04-25T11:34:33.302Z,20.24
2019-04-25T11:35:34.287Z,20.73
2019-04-25T11:36:34.074Z,19.54
2019-04-25T11:37:34.324Z,20.23
2019-04-25T11:38:33.876Z,20.24
2019-04-25T11:39:34.039Z,21.11
2019-04-25T11:40:34.625Z,21.50
2019-04-25T11:41:34.166Z,20.14
2019-04-25T11:42:33.869Z,20.83
2019-04-25T11:43:33.738Z,21.81
2019-04-25T11:44:33.314Z,21.72
2019-04-25T11:45:33.186Z,21.92
2019-04-25T11:46:33.409Z,21.71
2019-04-25T11:47:33.492Z,23.21
2019-04-25T11:48:34.035Z,21.62
2019-04-25T11:49:34.068Z,20.97
2019-04-25T11:50:33.114Z,21.85
2019-04-25T11:51:34.166Z,20.36
2019-04-25T11:52:33.844Z,21.64
2019-04-25T11:53:33.908Z,20.94
2019-04-25T11:54:33.075Z,20.54
2019-04-25T11:55:33.063Z,19.95
2019-04-25T11:56:34.244Z,19.64
2019-04-25T11:57:33.083Z,20.03
2019-04-25T11:58:33.082Z,20.14
2019-04-25T11:59:34.162Z,20.52
2019-04-25T12:00:33.802Z,21.60
2019-04-25T12:01:33.601Z,20.14
2019-04-25T12:02:34.392Z,19.74
2019-04-25T12:03:33.653Z,19.85
2019-04-25T12:04:33.353Z,18.76
2019-04-25T12:05:34.293Z,19.27
2019-04-25T12:06:33.552Z,20.06
2019-04-25T12:07:34.248Z,21.36
2019-04-25T12:08:33.572Z,20.76
2019-04-25T12:09:33.665Z,22.64
2019-04-25T12:10:34.498Z,20.36
2019-04-25T12:11:34.072Z,19.85
2019-04-25T12:12:33.874Z,19.57
2019-04-25T12:13:34.540Z,19.47
2019-04-25T12:14:34.177Z,20.86
2019-04-25T12:15:33.388Z,19.48
2019-04-25T12:16:32.867Z,19.76
2019-04-25T12:17:32.875Z,18.97
2019-04-25T12:18:33.879Z,19.65
2019-04-25T12:19:37.324Z,20.33
2019-04-25T12:20:34.113Z,18.74
2019-04-25T12:21:34.024Z,18.44
2019-04-25T12:22:34.322Z,19.13
2019-04-25T12:23:33.927Z,20.11
2019-04-25T12:24:33.468Z,18.95
2019-04-25T12:25:34.067Z,18.75
2019-04-25T12:26:33.687Z,19.44
2019-04-25T12:27:32.833Z,17.85
2019-04-25T12:28:33.876Z,17.36
2019-04-25T12:29:33.639Z,17.76
2019-04-25T12:30:38.105Z,18.44
2019-04-25T12:31:34.222Z,19.62
2019-04-25T12:32:35.040Z,19.81
2019-04-25T12:33:32.711Z,19.32
2019-04-25T12:34:33.799Z,19.60
2019-04-25T12:35:33.317Z,18.33
2019-04-25T12:36:34.116Z,18.44
2019-04-25T12:37:33.695Z,18.93
2019-04-25T12:38:33.475Z,19.51
2019-04-25T12:39:34.162Z,18.25
2019-04-25T12:40:34.221Z,18.94
2019-04-25T12:41:32.609Z,18.73
2019-04-25T12:42:34.278Z,19.61
2019-04-25T12:43:33.915Z,17.95
2019-04-25T12:44:32.564Z,18.05
2019-04-25T12:45:34.205Z,18.85
2019-04-25T12:46:34.639Z,18.27
2019-04-25T12:47:34.249Z,18.67
2019-04-25T12:48:34.031Z,18.37
2019-04-25T12:49:34.437Z,19.34
2019-04-25T12:50:33.644Z,18.54
2019-04-25T12:51:32.485Z,20.21
2019-04-25T12:52:33.322Z,18.44